Time;durP1;ratioP1;P1;durP2;ratioP2;P2;SDS_P1;SDS_P2;PMS_P1;PMS_P2;Temp;Humidity;BMP_temperature;BMP_pressure;BME280_temperature;BME280_humidity;BME280_pressure;Samples;Min_cycle;Max_cycle;Signal;HPM_P1;HPM_P2
2023/01/05 00:01:46;;;;;;;16.17;4.05;;;;;;;;;;6254351;23;20079;-80
2023/01/05 00:04:12;;;;;;;15.90;4.03;;;;;;;;;;6254856;23;20000;-79
2023/01/05 00:06:39;;;;;;;16.73;4.10;;;;;;;;;;6244327;23;20424;-79
2023/01/05 00:09:05;;;;;;;14.35;3.28;;;;;;;;;;6254719;23;20003;-79
2023/01/05 00:22:53;;;;;;;17.83;4.18;;;16.00;79.50;;;;;;6254562;23;20069;-79
2023/01/05 00:25:24;;;;;;;10.00;2.85;;;16.00;79.50;;;;;;6253983;23;19996;-79
2023/01/05 00:27:52;;;;;;;10.35;2.75;;;;;;;;;;6254733;23;20058;-79
2023/01/05 00:30:21;;;;;;;17.40;3.85;;;16.00;79.80;;;;;;6254584;23;20054;-79
2023/01/05 00:32:47;;;;;;;14.98;3.72;;;;;;;;;;6254762;23;20019;-79
2023/01/05 00:35:14;;;;;;;11.82;3.40;;;16.00;79.60;;;;;;6254439;23;20002;-79
2023/01/05 00:37:40;;;;;;;15.43;3.60;;;;;;;;;;6254532;23;20000;-79
2023/01/05 00:40:12;;;;;;;16.20;3.83;;;16.00;79.80;;;;;;6254487;23;20331;-79
2023/01/05 00:42:38;;;;;;;17.67;3.75;;;;;;;;;;6254533;23;20012;-79
2023/01/05 00:45:09;;;;;;;11.80;3.22;;;16.00;74.30;;;;;;6254353;23;20046;-79
2023/01/05 00:47:35;;;;;;;15.05;3.15;;;;;;;;;;6254432;23;20478;-80
2023/01/05 00:50:01;;;;;;;11.02;2.53;;;;;;;;;;6254479;23;19992;-80
2023/01/05 00:52:27;;;;;;;9.13;2.55;;;;;;;;;;6254566;23;20027;-72
2023/01/05 00:54:53;;;;;;;17.55;4.15;;;;;;;;;;6254669;23;20071;-72
2023/01/05 00:57:19;;;;;;;13.13;3.17;;;;;;;;;;6254733;23;20416;-72
2023/01/05 00:59:45;;;;;;;16.38;3.30;;;;;;;;;;6254622;23;20000;-72
2023/01/05 01:02:11;;;;;;;11.68;2.83;;;;;;;;;;6254183;23;20055;-72
2023/01/05 01:04:37;;;;;;;11.57;3.25;;;;;;;;;;6254607;23;19996;-72
2023/01/05 01:07:04;;;;;;;11.20;3.53;;;16.00;79.60;;;;;;6254522;23;20000;-72
2023/01/05 01:09:30;;;;;;;12.63;3.70;;;;;;;;;;6254551;23;19999;-72
2023/01/05 01:11:56;;;;;;;14.77;3.20;;;;;;;;;;6254474;23;19996;-72
2023/01/05 01:14:23;;;;;;;9.27;2.90;;;;;;;;;;6254523;23;19997;-72
2023/01/05 01:16:49;;;;;;;8.70;2.97;;;;;;;;;;6244461;23;20331;-72
2023/01/05 01:19:18;;;;;;;11.90;3.10;;;16.00;79.60;;;;;;6254513;23;20023;-72
2023/01/05 01:21:44;;;;;;;17.25;3.35;;;;;;;;;;6254629;23;20080;-72
2023/01/05 01:24:16;;;;;;;16.23;3.15;;;15.90;79.60;;;;;;6254494;23;19996;-72
2023/01/05 01:26:42;;;;;;;13.38;3.35;;;;;;;;;;6254575;23;19993;-72
2023/01/05 01:29:08;;;;;;;10.80;2.42;;;;;;;;;;6244186;23;20023;-72
2023/01/05 01:31:34;;;;;;;13.15;3.03;;;;;;;;;;6254458;23;20027;-72
2023/01/05 01:34:00;;;;;;;13.93;2.83;;;;;;;;;;6244151;23;20004;-72
2023/01/05 01:36:26;;;;;;;10.10;2.88;;;;;;;;;;6254478;23;20420;-72
2023/01/05 01:38:52;;;;;;;14.35;3.22;;;;;;;;;;6254440;23;20000;-72
2023/01/05 01:41:18;;;;;;;12.85;3.40;;;;;;;;;;6254410;23;20003;-72
2023/01/05 01:43:47;;;;;;;13.00;3.17;;;15.90;79.60;;;;;;6254410;23;20463;-72
2023/01/05 01:46:14;;;;;;;14.15;3.10;;;16.00;79.70;;;;;;6244626;23;20319;-72
2023/01/05 01:48:50;;;;;;;9.20;2.85;;;15.90;80.00;;;;;;6254370;23;20000;-72
2023/01/05 01:51:25;;;;;;;13.00;2.67;;;16.00;74.40;;;;;;6254360;23;20395;-72
2023/01/05 01:53:56;;;;;;;13.63;3.13;;;15.90;79.60;;;;;;6254260;23;20016;-72
2023/01/05 01:56:23;;;;;;;15.20;3.10;;;15.90;76.90;;;;;;6254242;23;19997;-72
2023/01/05 01:58:50;;;;;;;13.98;2.83;;;15.90;79.20;;;;;;6244556;23;20027;-72
2023/01/05 02:01:16;;;;;;;10.55;2.85;;;;;;;;;;6244433;23;20323;-72
2023/01/05 02:03:42;;;;;;;14.57;3.10;;;;;;;;;;6254226;23;20023;-72
2023/01/05 02:06:09;;;;;;;11.80;3.65;;;;;;;;;;6254517;23;19996;-72
2023/01/05 02:08:35;;;;;;;9.98;2.70;;;;;;;;;;6254312;23;20000;-72
2023/01/05 02:11:31;;;;;;;12.40;2.70;;;15.90;73.80;;;;;;6217331;23;20514;-72
2023/01/05 02:14:16;;;;;;;10.70;2.80;;;15.90;73.60;;;;;;6254510;23;19996;-72
2023/01/05 02:16:55;;;;;;;9.48;2.70;;;15.90;73.90;;;;;;6254345;23;20050;-72
2023/01/05 02:19:35;;;;;;;16.33;3.10;;;15.80;73.70;;;;;;6254462;23;20406;-72
2023/01/05 02:22:18;;;;;;;;;;;15.90;79.30;;;;;;6245022;23;20359;-72
2023/01/05 02:25:22;;;;;;;8.30;2.90;;;15.90;73.40;;;;;;6244338;23;19903;-72
2023/01/05 02:28:05;;;;;;;15.55;3.22;;;15.90;78.40;;;;;;6244126;23;20015;-72
2023/01/05 02:30:53;;;;;;;11.07;2.92;;;15.90;72.90;;;;;;6255987;23;20074;-72
2023/01/05 02:33:39;;;;;;;12.85;3.20;;;15.80;72.30;;;;;;6245822;23;20058;-72
2023/01/05 02:36:21;;;;;;;14.85;2.45;;;15.90;72.60;;;;;;6256091;23;20304;-72
2023/01/05 02:39:07;;;;;;;12.90;2.80;;;15.90;72.80;;;;;;6255997;23;20119;-72
2023/01/05 02:42:14;;;;;;;7.25;2.38;;;15.90;73.10;;;;;;6246330;23;19992;-72
2023/01/05 02:44:40;;;;;;;10.55;3.13;;;;;;;;;;6211674;23;20008;-72
2023/01/05 02:47:07;;;;;;;12.55;2.88;;;;;;;;;;6245642;23;20007;-72
2023/01/05 02:49:39;;;;;;;9.23;2.38;;;15.80;72.50;;;;;;6245966;23;20304;-72
2023/01/05 02:52:08;;;;;;;13.93;2.90;;;15.90;78.20;;;;;;6245737;23;20076;-72
2023/01/05 02:54:40;;;;;;;13.45;2.67;;;15.80;77.10;;;;;;6246045;23;20007;-72
2023/01/05 02:57:17;;;;;;;9.27;2.35;;;15.80;71.60;;;;;;6246060;23;20069;-72
2023/01/05 02:59:47;;;;;;;13.88;2.60;;;15.80;76.90;;;;;;6255911;23;19993;-72
2023/01/05 03:02:29;;;;;;;16.05;3.38;;;15.80;71.80;;;;;;6255333;23;20017;-72
2023/01/05 03:05:06;;;;;;;14.02;3.20;;;15.80;72.00;;;;;;6255821;23;20019;-72
2023/01/05 03:07:39;;;;;;;10.82;2.65;;;15.80;77.00;;;;;;6255806;23;20003;-71
2023/01/05 03:15:41;;;;;;;14.70;2.95;;;15.90;76.00;;;;;;6255794;23;20501;-72
2023/01/05 03:18:10;;;;;;;9.40;2.60;;;15.80;75.80;;;;;;6255599;23;20007;-72
2023/01/05 03:20:40;;;;;;;12.80;2.90;;;15.80;75.70;;;;;;6255628;23;19996;-72
2023/01/05 03:35:30;;;;;;;12.20;2.80;;;15.80;75.90;;;;;;6245395;23;20077;-72
2023/01/05 03:38:06;;;;;;;6.30;2.15;;;15.80;75.90;;;;;;6245638;23;20000;-72
2023/01/05 03:40:36;;;;;;;10.77;2.40;;;16.00;98.90;;;;;;6245228;23;20327;-72
2023/01/05 03:43:03;;;;;;;13.30;3.13;;;15.80;75.70;;;;;;6245581;23;20364;-72
2023/01/05 03:45:41;;;;;;;11.40;2.80;;;15.70;71.00;;;;;;6245356;23;20227;-72
2023/01/05 03:48:08;;;;;;;11.27;2.75;;;;;;;;;;6245169;23;20000;-72
2023/01/05 03:50:35;;;;;;;9.88;2.67;;;15.80;75.20;;;;;;6245209;23;20007;-72
2023/01/05 03:53:02;;;;;;;10.02;2.55;;;15.80;98.80;;;;;;6245570;23;19997;-72
2023/01/05 03:55:28;;;;;;;11.32;2.50;;;;;;;;;;6245477;23;20075;-72
2023/01/05 03:57:55;;;;;;;12.02;3.13;;;;;;;;;;6245314;23;20394;-72
2023/01/05 04:00:22;;;;;;;10.50;2.50;;;;;;;;;;6244706;23;19997;-71
2023/01/05 04:02:48;;;;;;;11.02;2.75;;;;;;;;;;6244599;23;20020;-72
2023/01/05 04:05:14;;;;;;;8.63;2.50;;;;;;;;;;6218654;23;20079;-72
2023/01/05 04:07:41;;;;;;;7.65;2.20;;;;;;;;;;6244695;23;20008;-72
2023/01/05 04:10:07;;;;;;;14.75;2.42;;;15.80;74.80;;;;;;6244592;23;20000;-72
2023/01/05 04:12:35;;;;;;;6.97;2.33;;;;;;;;;;6245165;23;19999;-72
2023/01/05 04:15:02;;;;;;;9.85;2.28;;;15.70;75.70;;;;;;6244762;23;20008;-72
2023/01/05 04:17:29;;;;;;;14.18;2.97;;;;;;;;;;6245125;23;20513;-72
2023/01/05 04:19:55;;;;;;;9.38;2.30;;;;;;;;;;6244952;23;20004;-72
2023/01/05 04:22:22;;;;;;;7.55;2.50;;;;;;;;;;6244965;23;20304;-72
2023/01/05 04:24:48;;;;;;;9.25;2.55;;;;;;;;;;6245131;23;20000;-72
2023/01/05 04:27:14;;;;;;;14.20;2.78;;;;;;;;;;6245090;23;20331;-72
2023/01/05 04:29:41;;;;;;;9.45;2.60;;;;;;;;;;6245050;23;20007;-72
2023/01/05 04:32:07;;;;;;;10.55;2.38;;;;;;;;;;6245176;23;20000;-72
2023/01/05 04:34:34;;;;;;;15.80;2.92;;;;;;;;;;6244806;23;20004;-72
2023/01/05 04:36:59;;;;;;;8.90;1.88;;;;;;;;;;6245034;23;20007;-72
2023/01/05 04:39:26;;;;;;;9.52;2.38;;;;;;;;;;6244692;23;20011;-72
2023/01/05 04:41:52;;;;;;;8.27;2.50;;;15.80;99.10;;;;;;6245036;23;20000;-72
2023/01/05 04:44:18;;;;;;;10.20;2.25;;;;;;;;;;6244625;23;20012;-72
2023/01/05 04:46:45;;;;;;;11.05;2.70;;;;;;;;;;6244670;23;20000;-72
2023/01/05 04:49:11;;;;;;;11.15;3.13;;;;;;;;;;6245121;23;20075;-72
2023/01/05 04:51:38;;;;;;;10.32;2.30;;;;;;;;;;6244319;23;20474;-72
2023/01/05 04:54:04;;;;;;;9.13;2.00;;;;;;;;;;6244862;23;20006;-72
2023/01/05 04:56:30;;;;;;;7.82;2.58;;;;;;;;;;6244837;23;20011;-72
2023/01/05 04:58:57;;;;;;;12.35;2.72;;;;;;;;;;6244889;23;20019;-72
2023/01/05 05:01:23;;;;;;;9.45;1.90;;;;;;;;;;6244752;23;20015;-72
2023/01/05 05:03:50;;;;;;;11.65;3.33;;;;;;;;;;6244145;23;20344;-72
2023/01/05 05:06:16;;;;;;;11.88;2.40;;;;;;;;;;6244573;23;20436;-72
2023/01/05 05:08:42;;;;;;;10.38;2.85;;;;;;;;;;6245058;23;20000;-72
2023/01/05 05:11:09;;;;;;;12.60;2.75;;;;;;;;;;6244755;23;20427;-72
2023/01/05 05:13:35;;;;;;;13.35;3.45;;;;;;;;;;6244441;23;20035;-72
2023/01/05 05:16:01;;;;;;;13.25;2.35;;;;;;;;;;6244423;23;20007;-72
2023/01/05 05:18:28;;;;;;;15.95;2.28;;;15.60;98.70;;;;;;6244305;23;20032;-72
2023/01/05 05:20:54;;;;;;;8.95;2.35;;;;;;;;;;6244566;23;20002;-72
2023/01/05 05:23:20;;;;;;;8.05;2.05;;;15.90;98.80;;;;;;6244195;23;20080;-72
2023/01/05 05:25:50;;;;;;;8.70;2.30;;;15.80;69.70;;;;;;6218111;23;20124;-72
2023/01/05 05:28:17;;;;;;;7.82;2.42;;;;;;;;;;6244459;23;20056;-79
2023/01/05 05:30:43;;;;;;;11.82;2.38;;;;;;;;;;6244213;23;20007;-79
2023/01/05 05:33:09;;;;;;;14.35;2.47;;;;;;;;;;6254000;23;20347;-79
2023/01/05 05:35:35;;;;;;;11.27;2.70;;;;;;;;;;6253939;23;20042;-79
2023/01/05 05:38:01;;;;;;;8.32;1.88;;;;;;;;;;6253904;23;20004;-79
2023/01/05 05:40:28;;;;;;;13.18;2.72;;;15.90;73.20;;;;;;6253980;23;19997;-79
2023/01/05 05:42:54;;;;;;;11.82;2.75;;;;;;;;;;6244060;23;20012;-79
2023/01/05 05:45:20;;;;;;;12.20;2.45;;;;;;;;;;6254104;23;19992;-79
2023/01/05 05:47:45;;;;;;;8.77;2.83;;;15.80;99.00;;;;;;6254058;23;20003;-79
2023/01/05 05:50:12;;;;;;;12.70;3.25;;;;;;;;;;6217028;23;20327;-79
2023/01/05 05:52:38;;;;;;;9.38;2.72;;;;;;;;;;6254114;23;20519;-79
2023/01/05 05:55:04;;;;;;;13.27;3.10;;;16.00;98.70;;;;;;6226973;23;20019;-79
2023/01/05 05:57:29;;;;;;;12.18;3.45;;;15.90;84.20;;;;;;6254033;23;19996;-79
2023/01/05 05:59:55;;;;;;;6.43;2.28;;;;;;;;;;6243793;23;20056;-79
2023/01/05 06:02:21;;;;;;;9.80;3.13;;;;;;;;;;6253694;23;20083;-79
2023/01/05 06:04:47;;;;;;;7.57;2.83;;;;;;;;;;6255947;23;20374;-79
2023/01/05 06:07:13;;;;;;;9.18;3.58;;;;;;;;;;6255866;23;20039;-79
2023/01/05 06:09:40;;;;;;;11.68;3.63;;;;;;;;;;6245808;23;20111;-78
2023/01/05 06:12:06;;;;;;;11.35;3.60;;;;;;;;;;6245378;23;20079;-78
2023/01/05 06:14:32;;;;;;;10.52;4.13;;;15.80;99.20;;;;;;6246000;23;19997;-79
2023/01/05 06:16:59;;;;;;;13.00;4.15;;;;;;;;;;6245611;23;20384;-80
2023/01/05 06:19:26;;;;;;;8.48;4.38;;;;;;;;;;6245775;23;20062;-80
2023/01/05 06:21:52;;;;;;;15.15;4.65;;;;;;;;;;6245752;23;20439;-76
2023/01/05 06:24:18;;;;;;;12.38;4.68;;;15.90;83.40;;;;;;6246092;23;20004;-77
2023/01/05 06:26:44;;;;;;;14.40;4.82;;;16.10;99.10;;;;;;6251974;23;20023;-81
2023/01/05 06:29:11;;;;;;;13.20;4.00;;;16.00;99.30;;;;;;6254377;23;20023;-80
2023/01/05 06:31:36;;;;;;;12.93;5.10;;;16.00;99.20;;;;;;6256318;23;19996;-81
2023/01/05 06:34:02;;;;;;;14.65;4.93;;;16.20;99.20;;;;;;6256696;23;19996;-83
2023/01/05 06:36:28;;;;;;;12.00;4.53;;;;;;;;;;6256261;23;20023;-83
2023/01/05 06:38:54;;;;;;;13.38;4.35;;;;;;;;;;6246494;23;20433;-84
2023/01/05 06:41:20;;;;;;;8.43;4.22;;;;;;;;;;6256390;23;19992;-84
2023/01/05 06:43:46;;;;;;;13.75;4.22;;;;;;;;;;6256156;23;20039;-84
2023/01/05 06:46:12;;;;;;;10.85;3.92;;;;;;;;;;6256051;23;19996;-84
2023/01/05 06:48:38;;;;;;;12.35;4.18;;;;;;;;;;6256140;23;20015;-81
2023/01/05 06:51:03;;;;;;;9.75;3.00;;;15.90;95.70;;;;;;6229608;23;20500;-82
2023/01/05 06:53:29;;;;;;;10.68;3.53;;;;;;;;;;6255962;23;20032;-78
2023/01/05 06:55:55;;;;;;;12.90;3.42;;;;;;;;;;6255957;23;19992;-81
2023/01/05 06:58:21;;;;;;;12.63;3.17;;;16.10;84.60;;;;;;6256084;23;19996;-79
2023/01/05 07:00:47;;;;;;;10.60;3.17;;;;;;;;;;6246237;23;20462;-80
2023/01/05 07:03:13;;;;;;;9.63;3.00;;;16.00;98.70;;;;;;6245519;23;20016;-83
2023/01/05 07:05:40;;;;;;;10.60;3.25;;;16.00;98.50;;;;;;6246165;23;20050;-82
2023/01/05 07:08:06;;;;;;;10.07;2.97;;;16.00;98.50;;;;;;6246132;23;20000;-81
2023/01/05 07:10:32;;;;;;;9.20;2.90;;;16.10;98.70;;;;;;6246023;23;20003;-81
2023/01/05 07:12:58;;;;;;;7.10;2.67;;;16.00;98.60;;;;;;6246131;23;20020;-81
2023/01/05 07:15:24;;;;;;;18.02;3.53;;;16.10;98.60;;;;;;6245935;23;20313;-82
2023/01/05 07:17:50;;;;;;;11.10;3.03;;;16.00;98.50;;;;;;6245963;23;19996;-80
2023/01/05 07:20:16;;;;;;;10.38;2.90;;;15.80;98.40;;;;;;6246111;23;19992;-78
2023/01/05 07:22:42;;;;;;;10.57;2.83;;;16.10;98.40;;;;;;6245951;23;20008;-81
2023/01/05 07:25:10;;;;;;;10.48;2.95;;;;;;;;;;6245823;23;20323;-80
2023/01/05 07:27:36;;;;;;;10.68;2.80;;;16.00;98.40;;;;;;6246143;23;20010;-79
2023/01/05 07:30:03;;;;;;;14.50;2.95;;;;;;;;;;6246127;23;19992;-78
2023/01/05 07:32:29;;;;;;;9.68;2.88;;;;;;;;;;6246003;23;20004;-82
2023/01/05 07:34:55;;;;;;;8.20;2.42;;;;;;;;;;6246167;23;20401;-82
2023/01/05 07:37:23;;;;;;;9.93;2.88;;;16.00;95.60;;;;;;6246144;23;20316;-82
2023/01/05 07:39:49;;;;;;;12.40;3.13;;;;;;;;;;6245531;23;20015;-80
2023/01/05 07:42:16;;;;;;;10.35;2.72;;;;;;;;;;6245413;23;20079;-81
2023/01/05 07:44:42;;;;;;;12.38;3.10;;;16.10;98.30;;;;;;6245132;23;20007;-80
2023/01/05 07:47:08;;;;;;;11.77;2.67;;;;;;;;;;6245628;23;20020;-80
2023/01/05 07:49:35;;;;;;;13.07;3.08;;;;;;;;;;6245434;23;20427;-80
2023/01/05 07:52:01;;;;;;;12.30;3.13;;;16.20;98.40;;;;;;6245052;23;20011;-80
2023/01/05 07:54:27;;;;;;;10.75;2.78;;;;;;;;;;6245318;23;19996;-80
2023/01/05 07:56:53;;;;;;;10.38;2.20;;;;;;;;;;6255685;23;20126;-79
2023/01/05 07:59:19;;;;;;;12.88;3.08;;;16.20;98.20;;;;;;6246291;23;20327;-79
2023/01/05 08:01:45;;;;;;;13.18;3.17;;;;;;;;;;6245671;23;20000;-79
2023/01/05 08:04:11;;;;;;;14.35;3.17;;;;;;;;;;6245856;23;20012;-79
2023/01/05 08:06:37;;;;;;;14.27;3.22;;;16.10;98.00;;;;;;6218921;23;20431;-80
2023/01/05 08:10:27;;;;;;;11.20;2.67;;;16.10;98.00;;;;;;6245584;23;20420;-78
2023/01/05 08:11:50;;;;;;;13.23;2.95;;;;;;;;;;6245770;23;20331;-78
2023/01/05 08:14:16;;;;;;;9.65;2.67;;;16.10;98.10;;;;;;6245528;23;20004;-76
2023/01/05 08:16:42;;;;;;;11.95;2.60;;;15.90;98.00;;;;;;6245812;23;19996;-78
2023/01/05 08:19:09;;;;;;;12.23;3.08;;;16.10;73.70;;;;;;6245805;23;20010;-79
2023/01/05 08:21:35;;;;;;;12.82;3.60;;;;;;;;;;6245721;23;20007;-78
2023/01/05 08:24:01;;;;;;;11.77;2.72;;;16.00;97.00;;;;;;6245827;23;20008;-77
2023/01/05 08:26:28;;;;;;;14.38;3.60;;;;;;;;;;6245183;23;20008;-76
2023/01/05 08:28:54;;;;;;;17.58;3.30;;;16.10;98.10;;;;;;6245639;23;20023;-76
2023/01/05 08:31:23;;;;;;;15.60;3.67;;;16.10;97.90;;;;;;6245840;23;19996;-78
2023/01/05 08:33:49;;;;;;;7.93;3.22;;;16.10;72.80;;;;;;6245547;23;20035;-78
2023/01/05 08:36:21;;;;;;;15.07;3.25;;;15.80;73.40;;;;;;6255407;23;20011;-78
2023/01/05 08:38:49;;;;;;;11.57;3.35;;;16.10;73.00;;;;;;6255472;23;20000;-80
2023/01/05 08:41:23;;;;;;;14.73;3.45;;;16.10;72.80;;;;;;6255384;23;19996;-80
2023/01/05 08:43:50;;;;;;;13.05;3.13;;;16.10;73.20;;;;;;6244905;23;20031;-80
2023/01/05 08:46:17;;;;;;;12.57;3.30;;;16.10;97.90;;;;;;6245415;23;20000;-80
2023/01/05 08:48:44;;;;;;;15.07;3.13;;;;;;;;;;6250241;23;20004;-78
2023/01/05 08:51:10;;;;;;;13.88;3.08;;;16.10;98.10;;;;;;6251099;23;20075;-78
2023/01/05 08:53:35;;;;;;;14.63;3.65;;;16.10;98.20;;;;;;6245448;23;20027;-75
2023/01/05 08:56:02;;;;;;;13.55;3.20;;;16.20;98.00;;;;;;6245267;23;19996;-75
2023/01/05 08:58:28;;;;;;;21.98;3.45;;;16.30;98.10;;;;;;6245333;23;20366;-77
2023/01/05 09:00:54;;;;;;;13.48;3.40;;;16.10;98.00;;;;;;6245024;23;19993;-77
2023/01/05 09:03:20;;;;;;;16.13;3.00;;;16.20;98.00;;;;;;6244619;23;20447;-75
2023/01/05 09:05:46;;;;;;;13.38;3.00;;;;;;;;;;6245238;23;20015;-80
2023/01/05 09:08:12;;;;;;;10.35;2.60;;;16.20;98.00;;;;;;6246931;23;20080;-77
2023/01/05 09:10:38;;;;;;;13.68;3.78;;;16.20;97.80;;;;;;6245391;23;20023;-77
2023/01/05 09:13:05;;;;;;;16.33;3.33;;;;;;;;;;6245297;23;20042;-77
2023/01/05 09:15:31;;;;;;;13.52;3.63;;;;;;;;;;6245281;23;20144;-77
2023/01/05 09:17:57;;;;;;;14.88;3.08;;;;;;;;;;6245222;23;20004;-78
2023/01/05 09:20:23;;;;;;;15.27;3.65;;;16.20;97.50;;;;;;6245051;23;20007;-77
2023/01/05 09:22:49;;;;;;;13.32;3.03;;;16.30;97.80;;;;;;6245082;23;20007;-77
2023/01/05 09:25:15;;;;;;;12.20;2.95;;;16.30;97.70;;;;;;6245296;23;20362;-77
2023/01/05 09:27:42;;;;;;;12.63;2.75;;;16.10;97.80;;;;;;6245475;23;20331;-77
2023/01/05 09:30:08;;;;;;;13.95;3.80;;;16.20;97.80;;;;;;6245164;23;19997;-77
2023/01/05 09:32:36;;;;;;;15.23;3.13;;;16.30;97.90;;;;;;6245278;23;20079;-77
2023/01/05 09:35:02;;;;;;;11.43;3.13;;;16.30;97.90;;;;;;6244868;23;20415;-77
2023/01/05 09:37:28;;;;;;;10.95;3.17;;;16.10;97.90;;;;;;6245654;23;20000;-77
2023/01/05 09:39:54;;;;;;;13.98;3.38;;;16.20;97.80;;;;;;6247139;23;19996;-77
2023/01/05 09:42:23;;;;;;;12.32;2.83;;;16.30;97.90;;;;;;6246680;23;20442;-77
2023/01/05 09:44:58;;;;;;;13.57;3.13;;;16.20;68.50;;;;;;6247025;23;19996;-77
2023/01/05 09:47:28;;;;;;;16.27;3.22;;;16.20;98.00;;;;;;6247311;23;20000;-77
2023/01/05 09:49:56;;;;;;;10.60;2.83;;;16.30;97.90;;;;;;6246941;23;20000;-77
2023/01/05 09:52:22;;;;;;;12.88;2.90;;;16.20;97.90;;;;;;6246778;23;20079;-77
2023/01/05 09:54:48;;;;;;;15.68;3.50;;;16.30;97.90;;;;;;6246677;23;20011;-77
2023/01/05 09:57:22;;;;;;;12.30;3.10;;;16.10;97.90;;;;;;6247088;23;20008;-79
2023/01/05 09:59:51;;;;;;;19.20;3.72;;;16.30;97.90;;;;;;6246802;23;19996;-77
2023/01/05 10:02:41;;;;;;;22.15;3.78;;;16.20;68.40;;;;;;6246521;23;20012;-78
2023/01/05 10:05:11;;;;;;;14.00;3.45;;;16.20;73.30;;;;;;6246990;23;20063;-77
2023/01/05 10:07:53;;;;;;;12.05;2.92;;;16.20;68.40;;;;;;6246682;23;19993;-78
2023/01/05 10:10:25;;;;;;;17.92;3.50;;;16.10;68.50;;;;;;6247011;23;20000;-78
2023/01/05 10:13:05;;;;;;;14.35;3.47;;;16.20;73.20;;;;;;6246521;23;20481;-77
2023/01/05 10:15:40;;;;;;;15.85;3.08;;;16.20;98.00;;;;;;6246517;23;20043;-77
2023/01/05 10:18:14;;;;;;;17.67;3.45;;;15.90;98.00;;;;;;6246800;23;20003;-77
2023/01/05 10:20:45;;;;;;;10.98;3.17;;;16.30;98.00;;;;;;6246914;23;20000;-78
2023/01/05 10:23:33;;;;;;;11.55;3.03;;;16.30;70.10;;;;;;6246332;23;20499;-68
2023/01/05 10:26:20;;;;;;;14.35;3.15;;;16.20;73.20;;;;;;6246585;23;20339;-69
2023/01/05 10:28:58;;;;;;;14.40;3.58;;;16.00;97.80;;;;;;6246735;23;20072;-69
2023/01/05 10:31:30;;;;;;;12.98;2.97;;;16.30;97.70;;;;;;6246633;23;20071;-69
2023/01/05 10:34:22;;;;;;;14.25;3.00;;;16.30;97.70;;;;;;6246178;23;20458;-68
2023/01/05 10:37:18;;;;;;;14.35;2.70;;;16.00;97.60;;;;;;6245700;23;20084;-68
2023/01/05 10:40:10;;;;;;;14.77;3.63;;;15.80;97.60;;;;;;6246098;23;20004;-69
2023/01/05 10:42:57;;;;;;;12.13;3.25;;;16.10;97.90;;;;;;6246587;23;20016;-70
2023/01/05 10:45:29;;;;;;;13.18;2.80;;;16.20;73.40;;;;;;6246658;23;20000;-70
2023/01/05 10:47:56;;;;;;;11.02;3.28;;;19.10;75.00;;;;;;6246114;23;20063;-70
2023/01/05 10:50:44;;;;;;;16.63;3.45;;;16.30;97.90;;;;;;6245512;23;20004;-70
2023/01/05 10:53:15;;;;;;;15.32;3.35;;;16.30;97.90;;;;;;6246354;23;20026;-70
2023/01/05 10:55:57;;;;;;;14.88;2.63;;;16.20;72.80;;;;;;6246481;23;20027;-70
2023/01/05 10:58:37;;;;;;;16.70;3.55;;;16.10;98.00;;;;;;6246092;23;20046;-79
2023/01/05 11:01:13;;;;;;;11.35;3.60;;;16.20;97.80;;;;;;6246464;23;20023;-79
2023/01/05 11:03:43;;;;;;;15.77;3.50;;;16.00;97.80;;;;;;6256059;23;20186;-79
2023/01/05 11:06:29;;;;;;;18.27;3.03;;;16.40;97.80;;;;;;6256290;23;20458;-79
2023/01/05 11:09:21;;;;;;;15.88;3.05;;;16.30;98.00;;;;;;6246515;23;20004;-79
2023/01/05 11:12:01;;;;;;;9.15;2.72;;;16.30;68.10;;;;;;6256338;23;20007;-79
2023/01/05 11:14:32;;;;;;;;;;;16.40;74.10;;;;;;6256840;23;20000;-80
2023/01/05 11:17:06;;;;;;;12.35;3.63;;;16.20;97.70;;;;;;6256241;23;19905;-80
2023/01/05 11:19:35;;;;;;;16.35;2.95;;;16.40;97.80;;;;;;6256170;23;19996;-79
2023/01/05 11:22:02;;;;;;;13.23;3.20;;;;;;;;;;6256150;23;20071;-79
2023/01/05 11:24:28;;;;;;;11.90;2.85;;;;;;;;;;6250859;23;19996;-79
2023/01/05 11:27:04;;;;;;;12.07;2.88;;;16.30;97.90;;;;;;6256209;23;20380;-81
2023/01/05 11:29:30;;;;;;;16.27;4.05;;;;;;;;;;6256160;23;20324;-80
2023/01/05 11:32:05;;;;;;;16.55;3.58;;;16.40;98.30;;;;;;6256139;23;20071;-81
2023/01/05 11:34:48;;;;;;;13.63;3.33;;;16.30;73.90;;;;;;6246289;23;20324;-80
2023/01/05 11:37:25;;;;;;;8.75;2.55;;;16.40;98.10;;;;;;6246874;23;20059;-78
2023/01/05 11:39:58;;;;;;;11.75;3.53;;;16.30;73.50;;;;;;6245743;23;19997;-76
2023/01/05 11:42:24;;;;;;;12.63;2.95;;;16.40;98.10;;;;;;6245511;23;20011;-78
2023/01/05 11:44:50;;;;;;;15.65;3.50;;;16.50;97.90;;;;;;6245868;23;20016;-77
2023/01/05 11:47:27;;;;;;;19.13;4.03;;;16.50;97.90;;;;;;6245857;23;20005;-80
2023/01/05 11:50:26;;;;;;;15.40;3.75;;;16.50;68.10;;;;;;6245758;23;20000;-77
2023/01/05 11:53:01;;;;;;;14.32;2.90;;;16.70;98.10;;;;;;6223386;23;20024;-78
2023/01/05 11:55:33;;;;;;;13.43;3.20;;;16.50;97.70;;;;;;6245352;23;20066;-77
2023/01/05 11:58:21;;;;;;;11.40;3.35;;;16.50;97.80;;;;;;6245791;23;20000;-78
2023/01/05 12:01:10;;;;;;;11.45;2.97;;;16.50;73.50;;;;;;6226563;23;20076;-77
2023/01/05 12:03:57;;;;;;;15.50;3.50;;;16.40;98.00;;;;;;6195286;23;20052;-78
2023/01/05 12:06:50;;;;;;;16.95;3.50;;;16.30;98.20;;;;;;6255647;23;20003;-76
2023/01/05 12:09:38;;;;;;;12.90;3.10;;;16.40;68.40;;;;;;6255531;23;20370;-81
2023/01/05 12:12:04;;;;;;;14.63;3.55;;;;;;;;;;6255942;23;20301;-81
2023/01/05 12:15:17;;;;;;;13.20;3.33;;;16.40;68.30;;;;;;6255811;23;19996;-82
2023/01/05 12:18:16;;;;;;;15.77;3.85;;;16.50;68.40;;;;;;6201096;23;20447;-80
2023/01/05 12:20:56;;;;;;;13.73;3.50;;;16.50;86.40;;;;;;6244657;23;20476;-80
2023/01/05 12:23:33;;;;;;;14.68;3.33;;;16.40;68.60;;;;;;6244521;23;20008;-80
2023/01/05 12:26:27;;;;;;;8.43;3.17;;;16.60;97.30;;;;;;6244884;23;20004;-80
2023/01/05 12:29:24;;;;;;;13.55;3.17;;;16.40;68.80;;;;;;6244917;23;19996;-79
2023/01/05 12:32:31;;;;;;;12.10;3.78;;;16.30;68.80;;;;;;6244981;23;20008;-79
2023/01/05 12:35:45;;;;;;;13.63;3.35;;;16.40;80.30;;;;;;6121930;23;20061;-79
2023/01/05 12:38:53;;;;;;;18.35;3.92;;;16.30;68.60;;;;;;6071156;23;20022;-79
2023/01/05 12:41:33;;;;;;;21.17;3.78;;;16.30;68.70;;;;;;6244186;23;20146;-79
2023/01/05 12:44:20;;;;;;;12.38;3.58;;;16.30;68.70;;;;;;6244370;23;20005;-79
2023/01/05 12:46:46;;;;;;;15.77;3.58;;;;;;;;;;6244799;23;20006;-81
2023/01/05 12:49:21;;;;;;;11.25;3.08;;;16.30;68.70;;;;;;6244808;23;20102;-69
2023/01/05 12:52:00;;;;;;;14.48;3.90;;;16.30;68.80;;;;;;6219452;23;20028;-69
2023/01/05 12:54:45;;;;;;;17.00;3.85;;;16.40;98.10;;;;;;6218152;23;20082;-69
2023/01/05 12:57:17;;;;;;;13.93;3.78;;;16.40;98.20;;;;;;6218254;23;20447;-69
2023/01/05 13:00:12;;;;;;;14.57;3.42;;;16.30;73.50;;;;;;6218088;23;20020;-69
2023/01/05 13:02:43;;;;;;;8.63;2.72;;;16.40;97.80;;;;;;6244530;23;20058;-69
2023/01/05 13:05:26;;;;;;;12.77;2.92;;;16.40;68.60;;;;;;6244839;23;20001;-69
2023/01/05 13:07:57;;;;;;;12.65;3.60;;;16.30;81.80;;;;;;6244728;23;20071;-79
2023/01/05 13:10:50;;;;;;;12.02;3.22;;;16.30;95.90;;;;;;6244766;23;20358;-79
2023/01/05 13:13:22;;;;;;;11.73;3.15;;;16.30;74.00;;;;;;6244030;23;20035;-79
2023/01/05 13:16:01;;;;;;;12.77;3.35;;;16.30;68.90;;;;;;6244651;23;20386;-79
2023/01/05 13:18:29;;;;;;;12.68;2.95;;;16.30;73.90;;;;;;6244157;23;20007;-79
2023/01/05 13:21:00;;;;;;;17.10;3.38;;;16.30;98.00;;;;;;6244537;23;19996;-79
2023/01/05 13:23:44;;;;;;;14.75;3.17;;;16.10;83.90;;;;;;6254881;23;20039;-79
2023/01/05 13:26:15;;;;;;;12.13;2.78;;;16.30;98.20;;;;;;6244754;23;20000;-80
2023/01/05 13:28:42;;;;;;;16.42;3.70;;;;;;;;;;6245178;23;20337;-78
2023/01/05 13:31:29;;;;;;;14.85;3.15;;;16.30;98.00;;;;;;6244636;23;20075;-77
2023/01/05 13:34:13;;;;;;;21.35;3.35;;;16.20;76.60;;;;;;6245060;23;20387;-78
2023/01/05 13:37:04;;;;;;;14.30;3.47;;;16.30;95.20;;;;;;6245121;23;20320;-80
2023/01/05 13:39:43;;;;;;;16.17;3.83;;;16.30;98.00;;;;;;6245080;23;20000;-80
2023/01/05 13:42:26;;;;;;;15.73;3.85;;;16.40;98.10;;;;;;6244981;23;20007;-80
2023/01/05 13:45:04;;;;;;;20.50;4.05;;;16.40;98.10;;;;;;6245090;23;20008;-81
2023/01/05 13:47:48;;;;;;;18.13;3.15;;;16.40;98.00;;;;;;6244361;23;20004;-79
2023/01/05 13:50:43;;;;;;;14.60;2.78;;;16.30;97.90;;;;;;6244875;23;20053;-78
2023/01/05 13:53:16;;;;;;;15.27;3.33;;;16.40;98.10;;;;;;6241276;23;20075;-79
2023/01/05 13:55:54;;;;;;;16.90;4.32;;;16.40;98.10;;;;;;6254877;23;20103;-80
2023/01/05 13:58:41;;;;;;;15.05;3.50;;;16.30;95.90;;;;;;6254885;23;19996;-79
2023/01/05 14:01:13;;;;;;;14.68;3.22;;;;;;;;;;6254715;23;20008;-77
2023/01/05 14:03:45;;;;;;;11.35;3.15;;;16.40;97.90;;;;;;6217496;23;20016;-77
2023/01/05 14:06:22;;;;;;;13.07;3.85;;;16.30;68.50;;;;;;6254727;23;19996;-78
2023/01/05 14:09:13;;;;;;;15.35;3.28;;;16.10;73.90;;;;;;6244940;23;19992;-77
2023/01/05 14:12:19;;;;;;;12.38;3.00;;;16.30;97.80;;;;;;6254884;23;20003;-78